sensor_id;sensor_type;location;lat;lon;timestamp;P1;durP1;ratioP1;P2;durP2;ratioP2
51358;SDS011;37448;51.588;7.248;2022-10-17T00:02:14;14.10;;;8.52;;
51358;SDS011;37448;51.588;7.248;2022-10-17T00:04:44;17.55;;;8.82;;
51358;SDS011;37448;51.588;7.248;2022-10-17T00:07:15;13.40;;;8.73;;
51358;SDS011;37448;51.588;7.248;2022-10-17T00:09:45;13.82;;;8.93;;
51358;SDS011;37448;51.588;7.248;2022-10-17T00:12:15;14.82;;;9.50;;
51358;SDS011;37448;51.588;7.248;2022-10-17T00:14:46;18.50;;;9.05;;
51358;SDS011;37448;51.588;7.248;2022-10-17T00:17:16;15.80;;;9.32;;
51358;SDS011;37448;51.588;7.248;2022-10-17T00:19:47;15.55;;;9.57;;
51358;SDS011;37448;51.588;7.248;2022-10-17T00:22:17;13.77;;;8.95;;
51358;SDS011;37448;51.588;7.248;2022-10-17T00:24:47;13.73;;;8.45;;
51358;SDS011;37448;51.588;7.248;2022-10-17T00:27:18;14.95;;;8.88;;
51358;SDS011;37448;51.588;7.248;2022-10-17T00:29:48;13.45;;;8.52;;
51358;SDS011;37448;51.588;7.248;2022-10-17T00:32:20;12.68;;;8.20;;
51358;SDS011;37448;51.588;7.248;2022-10-17T00:34:50;13.32;;;8.77;;
51358;SDS011;37448;51.588;7.248;2022-10-17T00:37:21;14.75;;;8.43;;
51358;SDS011;37448;51.588;7.248;2022-10-17T00:39:52;13.00;;;8.07;;
51358;SDS011;37448;51.588;7.248;2022-10-17T00:42:23;11.57;;;7.55;;
51358;SDS011;37448;51.588;7.248;2022-10-17T00:45:05;15.25;;;8.20;;
51358;SDS011;37448;51.588;7.248;2022-10-17T00:47:42;11.52;;;7.55;;
51358;SDS011;37448;51.588;7.248;2022-10-17T00:50:16;11.07;;;6.70;;
51358;SDS011;37448;51.588;7.248;2022-10-17T00:52:48;15.20;;;7.65;;
51358;SDS011;37448;51.588;7.248;2022-10-17T00:55:23;12.65;;;7.97;;
51358;SDS011;37448;51.588;7.248;2022-10-17T00:57:59;14.75;;;8.45;;
51358;SDS011;37448;51.588;7.248;2022-10-17T01:00:31;12.10;;;8.65;;
51358;SDS011;37448;51.588;7.248;2022-10-17T01:03:02;13.82;;;8.18;;
51358;SDS011;37448;51.588;7.248;2022-10-17T01:05:32;15.40;;;8.57;;
51358;SDS011;37448;51.588;7.248;2022-10-17T01:08:03;15.05;;;9.85;;
51358;SDS011;37448;51.588;7.248;2022-10-17T01:13:48;15.18;;;9.13;;
51358;SDS011;37448;51.588;7.248;2022-10-17T01:22:07;14.23;;;9.90;;
51358;SDS011;37448;51.588;7.248;2022-10-17T01:36:44;15.82;;;11.13;;
51358;SDS011;37448;51.588;7.248;2022-10-17T01:39:23;18.13;;;10.88;;
51358;SDS011;37448;51.588;7.248;2022-10-17T01:47:45;17.17;;;10.93;;
51358;SDS011;37448;51.588;7.248;2022-10-17T01:50:22;17.98;;;9.85;;
51358;SDS011;37448;51.588;7.248;2022-10-17T01:53:04;15.63;;;9.45;;
51358;SDS011;37448;51.588;7.248;2022-10-17T01:55:41;16.00;;;9.48;;
51358;SDS011;37448;51.588;7.248;2022-10-17T02:01:00;13.98;;;9.57;;
51358;SDS011;37448;51.588;7.248;2022-10-17T02:03:34;20.30;;;8.43;;
51358;SDS011;37448;51.588;7.248;2022-10-17T02:06:05;14.27;;;8.40;;
51358;SDS011;37448;51.588;7.248;2022-10-17T02:09:13;14.07;;;8.45;;
51358;SDS011;37448;51.588;7.248;2022-10-17T02:11:49;15.52;;;9.32;;
51358;SDS011;37448;51.588;7.248;2022-10-17T02:22:59;13.80;;;8.73;;
51358;SDS011;37448;51.588;7.248;2022-10-17T02:25:40;13.63;;;7.72;;
51358;SDS011;37448;51.588;7.248;2022-10-17T02:28:20;13.38;;;8.10;;
51358;SDS011;37448;51.588;7.248;2022-10-17T02:30:53;14.30;;;8.05;;
51358;SDS011;37448;51.588;7.248;2022-10-17T02:33:28;13.10;;;7.25;;
51358;SDS011;37448;51.588;7.248;2022-10-17T02:36:05;14.88;;;7.95;;
51358;SDS011;37448;51.588;7.248;2022-10-17T02:38:39;14.13;;;7.75;;
51358;SDS011;37448;51.588;7.248;2022-10-17T02:41:12;11.20;;;7.63;;
51358;SDS011;37448;51.588;7.248;2022-10-17T02:43:46;11.50;;;7.30;;
51358;SDS011;37448;51.588;7.248;2022-10-17T02:46:19;12.68;;;7.63;;
51358;SDS011;37448;51.588;7.248;2022-10-17T02:48:53;11.73;;;7.38;;
51358;SDS011;37448;51.588;7.248;2022-10-17T02:51:51;15.38;;;8.30;;
51358;SDS011;37448;51.588;7.248;2022-10-17T02:54:22;13.23;;;7.72;;
51358;SDS011;37448;51.588;7.248;2022-10-17T02:56:58;12.90;;;8.10;;
51358;SDS011;37448;51.588;7.248;2022-10-17T02:59:31;15.40;;;7.78;;
51358;SDS011;37448;51.588;7.248;2022-10-17T03:02:04;11.98;;;7.07;;
51358;SDS011;37448;51.588;7.248;2022-10-17T03:04:35;11.70;;;7.95;;
51358;SDS011;37448;51.588;7.248;2022-10-17T03:07:06;13.65;;;7.47;;
51358;SDS011;37448;51.588;7.248;2022-10-17T03:09:36;12.50;;;7.40;;
51358;SDS011;37448;51.588;7.248;2022-10-17T03:12:07;15.07;;;7.30;;
51358;SDS011;37448;51.588;7.248;2022-10-17T03:14:37;11.57;;;6.90;;
51358;SDS011;37448;51.588;7.248;2022-10-17T03:17:08;11.75;;;7.00;;
51358;SDS011;37448;51.588;7.248;2022-10-17T03:19:38;13.90;;;7.72;;
51358;SDS011;37448;51.588;7.248;2022-10-17T03:22:08;16.58;;;9.13;;
51358;SDS011;37448;51.588;7.248;2022-10-17T03:24:39;15.43;;;8.82;;
51358;SDS011;37448;51.588;7.248;2022-10-17T03:27:09;19.38;;;10.38;;
51358;SDS011;37448;51.588;7.248;2022-10-17T03:29:39;21.80;;;11.07;;
51358;SDS011;37448;51.588;7.248;2022-10-17T03:32:10;20.73;;;11.77;;
51358;SDS011;37448;51.588;7.248;2022-10-17T03:34:40;26.55;;;12.77;;
51358;SDS011;37448;51.588;7.248;2022-10-17T03:37:10;23.58;;;12.68;;
51358;SDS011;37448;51.588;7.248;2022-10-17T03:39:41;21.30;;;11.60;;
51358;SDS011;37448;51.588;7.248;2022-10-17T03:42:11;20.55;;;11.20;;
51358;SDS011;37448;51.588;7.248;2022-10-17T03:44:41;20.00;;;12.50;;
51358;SDS011;37448;51.588;7.248;2022-10-17T03:47:12;21.55;;;11.43;;
51358;SDS011;37448;51.588;7.248;2022-10-17T03:49:42;23.10;;;12.63;;
51358;SDS011;37448;51.588;7.248;2022-10-17T03:52:12;24.50;;;12.98;;
51358;SDS011;37448;51.588;7.248;2022-10-17T03:54:43;32.38;;;13.82;;
51358;SDS011;37448;51.588;7.248;2022-10-17T03:57:14;26.92;;;13.43;;
51358;SDS011;37448;51.588;7.248;2022-10-17T03:59:44;28.67;;;14.32;;
51358;SDS011;37448;51.588;7.248;2022-10-17T04:02:14;28.63;;;12.88;;
51358;SDS011;37448;51.588;7.248;2022-10-17T04:04:45;27.65;;;13.90;;
51358;SDS011;37448;51.588;7.248;2022-10-17T04:07:15;24.85;;;14.25;;
51358;SDS011;37448;51.588;7.248;2022-10-17T04:09:45;28.83;;;14.65;;
51358;SDS011;37448;51.588;7.248;2022-10-17T04:12:16;25.88;;;14.45;;
51358;SDS011;37448;51.588;7.248;2022-10-17T04:14:46;24.80;;;14.15;;
51358;SDS011;37448;51.588;7.248;2022-10-17T04:17:17;29.30;;;13.95;;
51358;SDS011;37448;51.588;7.248;2022-10-17T04:19:50;26.27;;;14.63;;
51358;SDS011;37448;51.588;7.248;2022-10-17T04:24:51;31.80;;;14.30;;
51358;SDS011;37448;51.588;7.248;2022-10-17T04:27:21;27.23;;;14.93;;
51358;SDS011;37448;51.588;7.248;2022-10-17T04:29:51;25.88;;;13.75;;
51358;SDS011;37448;51.588;7.248;2022-10-17T04:32:22;26.50;;;13.82;;
51358;SDS011;37448;51.588;7.248;2022-10-17T04:34:52;28.17;;;13.63;;
51358;SDS011;37448;51.588;7.248;2022-10-17T04:37:22;34.58;;;14.30;;
51358;SDS011;37448;51.588;7.248;2022-10-17T04:39:53;25.63;;;13.05;;
51358;SDS011;37448;51.588;7.248;2022-10-17T04:42:23;27.15;;;14.32;;
51358;SDS011;37448;51.588;7.248;2022-10-17T04:44:53;31.80;;;14.57;;
51358;SDS011;37448;51.588;7.248;2022-10-17T04:47:24;27.63;;;14.00;;
51358;SDS011;37448;51.588;7.248;2022-10-17T04:49:54;30.35;;;14.05;;
51358;SDS011;37448;51.588;7.248;2022-10-17T04:52:24;28.67;;;14.43;;
51358;SDS011;37448;51.588;7.248;2022-10-17T04:54:55;26.90;;;14.55;;
51358;SDS011;37448;51.588;7.248;2022-10-17T04:57:25;29.98;;;13.68;;
51358;SDS011;37448;51.588;7.248;2022-10-17T04:59:56;30.88;;;14.23;;
51358;SDS011;37448;51.588;7.248;2022-10-17T05:02:26;29.13;;;13.73;;
51358;SDS011;37448;51.588;7.248;2022-10-17T05:04:57;26.65;;;13.75;;
51358;SDS011;37448;51.588;7.248;2022-10-17T05:07:27;27.70;;;13.20;;
51358;SDS011;37448;51.588;7.248;2022-10-17T05:09:57;29.27;;;14.60;;
51358;SDS011;37448;51.588;7.248;2022-10-17T05:12:28;28.63;;;14.27;;
51358;SDS011;37448;51.588;7.248;2022-10-17T05:14:58;26.63;;;14.10;;
51358;SDS011;37448;51.588;7.248;2022-10-17T05:17:29;26.58;;;13.55;;
51358;SDS011;37448;51.588;7.248;2022-10-17T05:19:59;29.75;;;15.20;;
51358;SDS011;37448;51.588;7.248;2022-10-17T05:22:29;28.40;;;13.73;;
51358;SDS011;37448;51.588;7.248;2022-10-17T05:25:00;28.25;;;15.00;;
51358;SDS011;37448;51.588;7.248;2022-10-17T05:27:30;23.73;;;13.77;;
51358;SDS011;37448;51.588;7.248;2022-10-17T05:30:01;27.33;;;13.68;;
51358;SDS011;37448;51.588;7.248;2022-10-17T05:32:31;29.00;;;14.30;;
51358;SDS011;37448;51.588;7.248;2022-10-17T05:35:02;25.83;;;13.30;;
51358;SDS011;37448;51.588;7.248;2022-10-17T05:37:33;29.08;;;14.25;;
51358;SDS011;37448;51.588;7.248;2022-10-17T05:40:03;27.38;;;12.40;;
51358;SDS011;37448;51.588;7.248;2022-10-17T05:42:34;25.08;;;13.35;;
51358;SDS011;37448;51.588;7.248;2022-10-17T05:45:05;24.65;;;12.68;;
51358;SDS011;37448;51.588;7.248;2022-10-17T05:47:35;36.15;;;12.40;;
51358;SDS011;37448;51.588;7.248;2022-10-17T05:50:06;24.90;;;12.55;;
51358;SDS011;37448;51.588;7.248;2022-10-17T05:52:37;24.60;;;12.93;;
51358;SDS011;37448;51.588;7.248;2022-10-17T05:55:08;22.13;;;12.38;;
51358;SDS011;37448;51.588;7.248;2022-10-17T05:57:38;22.33;;;12.10;;
51358;SDS011;37448;51.588;7.248;2022-10-17T06:00:09;22.08;;;11.75;;
51358;SDS011;37448;51.588;7.248;2022-10-17T06:02:40;25.17;;;11.95;;
51358;SDS011;37448;51.588;7.248;2022-10-17T06:05:12;22.65;;;12.85;;
51358;SDS011;37448;51.588;7.248;2022-10-17T06:07:43;25.05;;;12.85;;
51358;SDS011;37448;51.588;7.248;2022-10-17T06:10:13;24.70;;;12.75;;
51358;SDS011;37448;51.588;7.248;2022-10-17T06:12:45;22.67;;;12.05;;
51358;SDS011;37448;51.588;7.248;2022-10-17T06:15:15;21.17;;;11.98;;
51358;SDS011;37448;51.588;7.248;2022-10-17T06:17:46;20.25;;;11.88;;
51358;SDS011;37448;51.588;7.248;2022-10-17T06:20:16;21.98;;;11.55;;
51358;SDS011;37448;51.588;7.248;2022-10-17T06:22:46;21.63;;;11.63;;
51358;SDS011;37448;51.588;7.248;2022-10-17T06:25:17;18.52;;;11.13;;
51358;SDS011;37448;51.588;7.248;2022-10-17T06:27:47;17.90;;;11.27;;
51358;SDS011;37448;51.588;7.248;2022-10-17T06:30:17;25.27;;;11.88;;
51358;SDS011;37448;51.588;7.248;2022-10-17T06:32:48;23.65;;;10.43;;
51358;SDS011;37448;51.588;7.248;2022-10-17T06:35:18;20.90;;;11.40;;
51358;SDS011;37448;51.588;7.248;2022-10-17T06:37:49;20.27;;;10.45;;
51358;SDS011;37448;51.588;7.248;2022-10-17T06:40:20;18.45;;;9.93;;
51358;SDS011;37448;51.588;7.248;2022-10-17T06:42:50;23.38;;;10.18;;
51358;SDS011;37448;51.588;7.248;2022-10-17T06:45:20;19.75;;;9.75;;
51358;SDS011;37448;51.588;7.248;2022-10-17T06:47:51;17.20;;;9.25;;
51358;SDS011;37448;51.588;7.248;2022-10-17T06:50:21;17.63;;;9.57;;
51358;SDS011;37448;51.588;7.248;2022-10-17T06:52:52;20.13;;;9.27;;
51358;SDS011;37448;51.588;7.248;2022-10-17T06:55:22;16.48;;;8.80;;
51358;SDS011;37448;51.588;7.248;2022-10-17T06:57:53;15.43;;;8.18;;
51358;SDS011;37448;51.588;7.248;2022-10-17T07:00:25;14.30;;;7.55;;
51358;SDS011;37448;51.588;7.248;2022-10-17T07:02:55;16.05;;;8.13;;
51358;SDS011;37448;51.588;7.248;2022-10-17T07:05:26;13.43;;;7.70;;
51358;SDS011;37448;51.588;7.248;2022-10-17T07:07:56;13.55;;;7.25;;
51358;SDS011;37448;51.588;7.248;2022-10-17T07:10:26;17.10;;;6.95;;
51358;SDS011;37448;51.588;7.248;2022-10-17T07:12:57;9.40;;;6.15;;
51358;SDS011;37448;51.588;7.248;2022-10-17T07:15:27;12.75;;;6.38;;
51358;SDS011;37448;51.588;7.248;2022-10-17T07:17:57;9.57;;;5.15;;
51358;SDS011;37448;51.588;7.248;2022-10-17T07:20:28;12.02;;;5.35;;
51358;SDS011;37448;51.588;7.248;2022-10-17T07:22:58;13.85;;;6.03;;
51358;SDS011;37448;51.588;7.248;2022-10-17T07:25:28;11.13;;;4.55;;
51358;SDS011;37448;51.588;7.248;2022-10-17T07:27:59;10.15;;;4.72;;
51358;SDS011;37448;51.588;7.248;2022-10-17T07:30:31;11.02;;;4.70;;
51358;SDS011;37448;51.588;7.248;2022-10-17T07:33:02;11.57;;;4.40;;
51358;SDS011;37448;51.588;7.248;2022-10-17T07:35:32;10.02;;;4.03;;
51358;SDS011;37448;51.588;7.248;2022-10-17T07:38:03;8.02;;;3.60;;
51358;SDS011;37448;51.588;7.248;2022-10-17T07:40:33;6.80;;;3.97;;
51358;SDS011;37448;51.588;7.248;2022-10-17T07:43:03;11.07;;;3.80;;
51358;SDS011;37448;51.588;7.248;2022-10-17T07:45:34;7.63;;;3.42;;
51358;SDS011;37448;51.588;7.248;2022-10-17T07:48:04;7.15;;;3.40;;
51358;SDS011;37448;51.588;7.248;2022-10-17T07:50:35;7.20;;;3.40;;
51358;SDS011;37448;51.588;7.248;2022-10-17T07:53:05;8.77;;;3.33;;
51358;SDS011;37448;51.588;7.248;2022-10-17T07:55:36;10.95;;;3.42;;
51358;SDS011;37448;51.588;7.248;2022-10-17T07:58:07;6.20;;;2.72;;
51358;SDS011;37448;51.588;7.248;2022-10-17T08:00:38;6.95;;;2.97;;
51358;SDS011;37448;51.588;7.248;2022-10-17T08:03:09;9.38;;;3.35;;
51358;SDS011;37448;51.588;7.248;2022-10-17T08:05:39;5.93;;;3.08;;
51358;SDS011;37448;51.588;7.248;2022-10-17T08:08:10;8.27;;;2.67;;
51358;SDS011;37448;51.588;7.248;2022-10-17T08:10:40;7.30;;;3.55;;
51358;SDS011;37448;51.588;7.248;2022-10-17T08:13:10;7.75;;;2.92;;
51358;SDS011;37448;51.588;7.248;2022-10-17T08:15:41;7.28;;;3.45;;
51358;SDS011;37448;51.588;7.248;2022-10-17T08:18:11;9.38;;;3.35;;
51358;SDS011;37448;51.588;7.248;2022-10-17T08:20:42;7.93;;;3.42;;
51358;SDS011;37448;51.588;7.248;2022-10-17T08:23:13;10.32;;;2.78;;
51358;SDS011;37448;51.588;7.248;2022-10-17T08:25:43;9.50;;;2.80;;
51358;SDS011;37448;51.588;7.248;2022-10-17T08:28:13;7.78;;;3.17;;
51358;SDS011;37448;51.588;7.248;2022-10-17T08:30:44;6.32;;;2.72;;
51358;SDS011;37448;51.588;7.248;2022-10-17T08:33:14;6.75;;;2.65;;
51358;SDS011;37448;51.588;7.248;2022-10-17T08:35:44;7.70;;;2.90;;
51358;SDS011;37448;51.588;7.248;2022-10-17T08:38:15;11.60;;;2.65;;
51358;SDS011;37448;51.588;7.248;2022-10-17T08:40:47;5.38;;;2.58;;
51358;SDS011;37448;51.588;7.248;2022-10-17T08:45:59;7.73;;;2.70;;
51358;SDS011;37448;51.588;7.248;2022-10-17T08:48:33;6.88;;;2.35;;
51358;SDS011;37448;51.588;7.248;2022-10-17T08:51:19;9.77;;;2.67;;
51358;SDS011;37448;51.588;7.248;2022-10-17T08:56:47;5.80;;;2.15;;
51358;SDS011;37448;51.588;7.248;2022-10-17T08:59:20;5.82;;;2.30;;
51358;SDS011;37448;51.588;7.248;2022-10-17T09:05:07;7.70;;;2.30;;
51358;SDS011;37448;51.588;7.248;2022-10-17T09:10:33;6.18;;;2.20;;
51358;SDS011;37448;51.588;7.248;2022-10-17T09:13:28;6.55;;;2.47;;
51358;SDS011;37448;51.588;7.248;2022-10-17T09:18:52;8.18;;;2.75;;
51358;SDS011;37448;51.588;7.248;2022-10-17T09:21:41;7.22;;;2.55;;
51358;SDS011;37448;51.588;7.248;2022-10-17T09:32:54;7.40;;;2.70;;
51358;SDS011;37448;51.588;7.248;2022-10-17T09:35:26;8.20;;;3.00;;
51358;SDS011;37448;51.588;7.248;2022-10-17T09:37:57;9.13;;;2.70;;
51358;SDS011;37448;51.588;7.248;2022-10-17T09:40:30;9.60;;;2.70;;
51358;SDS011;37448;51.588;7.248;2022-10-17T09:43:04;6.30;;;2.67;;
51358;SDS011;37448;51.588;7.248;2022-10-17T09:45:39;6.25;;;2.70;;
51358;SDS011;37448;51.588;7.248;2022-10-17T09:48:19;7.80;;;2.70;;
51358;SDS011;37448;51.588;7.248;2022-10-17T09:51:01;10.18;;;3.20;;
51358;SDS011;37448;51.588;7.248;2022-10-17T09:53:33;5.63;;;2.38;;
51358;SDS011;37448;51.588;7.248;2022-10-17T09:56:13;7.95;;;2.72;;
51358;SDS011;37448;51.588;7.248;2022-10-17T09:58:46;8.00;;;2.50;;
51358;SDS011;37448;51.588;7.248;2022-10-17T10:01:27;8.50;;;2.60;;
51358;SDS011;37448;51.588;7.248;2022-10-17T10:04:15;6.53;;;2.30;;
51358;SDS011;37448;51.588;7.248;2022-10-17T10:07:05;6.65;;;2.58;;
51358;SDS011;37448;51.588;7.248;2022-10-17T10:09:44;8.18;;;3.13;;
51358;SDS011;37448;51.588;7.248;2022-10-17T10:12:17;7.07;;;2.95;;
51358;SDS011;37448;51.588;7.248;2022-10-17T10:14:50;6.70;;;3.45;;
51358;SDS011;37448;51.588;7.248;2022-10-17T10:17:35;7.85;;;3.40;;
51358;SDS011;37448;51.588;7.248;2022-10-17T10:23:15;7.50;;;2.85;;
51358;SDS011;37448;51.588;7.248;2022-10-17T10:25:48;6.88;;;3.05;;
51358;SDS011;37448;51.588;7.248;2022-10-17T10:28:30;10.50;;;2.97;;
51358;SDS011;37448;51.588;7.248;2022-10-17T10:31:04;6.75;;;2.88;;
51358;SDS011;37448;51.588;7.248;2022-10-17T10:33:40;10.75;;;3.22;;
51358;SDS011;37448;51.588;7.248;2022-10-17T10:36:12;9.48;;;3.10;;
51358;SDS011;37448;51.588;7.248;2022-10-17T10:38:49;9.45;;;3.15;;
51358;SDS011;37448;51.588;7.248;2022-10-17T10:41:22;8.23;;;3.05;;
51358;SDS011;37448;51.588;7.248;2022-10-17T10:43:56;9.63;;;3.25;;
51358;SDS011;37448;51.588;7.248;2022-10-17T10:46:27;9.50;;;3.90;;
51358;SDS011;37448;51.588;7.248;2022-10-17T10:48:59;7.10;;;3.22;;
51358;SDS011;37448;51.588;7.248;2022-10-17T10:51:31;7.05;;;3.05;;
51358;SDS011;37448;51.588;7.248;2022-10-17T10:56:53;8.80;;;2.80;;
51358;SDS011;37448;51.588;7.248;2022-10-17T10:59:29;10.52;;;3.03;;
51358;SDS011;37448;51.588;7.248;2022-10-17T11:04:51;7.90;;;3.03;;
51358;SDS011;37448;51.588;7.248;2022-10-17T11:13:20;9.45;;;2.83;;
51358;SDS011;37448;51.588;7.248;2022-10-17T11:18:47;7.85;;;2.90;;
51358;SDS011;37448;51.588;7.248;2022-10-17T11:27:01;8.25;;;3.08;;
51358;SDS011;37448;51.588;7.248;2022-10-17T11:29:35;7.70;;;2.72;;
51358;SDS011;37448;51.588;7.248;2022-10-17T11:32:33;8.82;;;3.63;;
51358;SDS011;37448;51.588;7.248;2022-10-17T11:35:14;9.82;;;3.03;;
51358;SDS011;37448;51.588;7.248;2022-10-17T11:37:51;7.60;;;3.17;;
51358;SDS011;37448;51.588;7.248;2022-10-17T11:40:29;13.15;;;3.45;;
51358;SDS011;37448;51.588;7.248;2022-10-17T11:46:11;12.77;;;4.20;;
51358;SDS011;37448;51.588;7.248;2022-10-17T11:54:37;7.80;;;3.35;;
51358;SDS011;37448;51.588;7.248;2022-10-17T11:57:31;11.38;;;3.35;;
51358;SDS011;37448;51.588;7.248;2022-10-17T12:02:56;7.88;;;3.58;;
51358;SDS011;37448;51.588;7.248;2022-10-17T12:08:45;8.65;;;3.30;;
51358;SDS011;37448;51.588;7.248;2022-10-17T12:11:39;10.10;;;3.50;;
51358;SDS011;37448;51.588;7.248;2022-10-17T12:14:33;14.18;;;3.97;;
51358;SDS011;37448;51.588;7.248;2022-10-17T12:22:54;12.15;;;3.95;;
51358;SDS011;37448;51.588;7.248;2022-10-17T12:25:29;10.75;;;3.53;;
51358;SDS011;37448;51.588;7.248;2022-10-17T12:28:15;9.60;;;4.00;;
51358;SDS011;37448;51.588;7.248;2022-10-17T12:31:10;9.80;;;3.17;;
51358;SDS011;37448;51.588;7.248;2022-10-17T12:33:55;6.15;;;3.53;;
51358;SDS011;37448;51.588;7.248;2022-10-17T12:49:38;12.68;;;4.25;;
51358;SDS011;37448;51.588;7.248;2022-10-17T12:52:22;9.25;;;4.03;;
51358;SDS011;37448;51.588;7.248;2022-10-17T13:05:56;12.25;;;4.05;;
51358;SDS011;37448;51.588;7.248;2022-10-17T13:08:33;10.45;;;4.03;;
51358;SDS011;37448;51.588;7.248;2022-10-17T13:11:07;15.80;;;4.63;;
51358;SDS011;37448;51.588;7.248;2022-10-17T13:13:46;10.60;;;4.57;;
51358;SDS011;37448;51.588;7.248;2022-10-17T13:16:28;8.02;;;3.67;;
51358;SDS011;37448;51.588;7.248;2022-10-17T13:19:10;10.05;;;4.32;;
51358;SDS011;37448;51.588;7.248;2022-10-17T13:21:53;10.45;;;4.25;;
51358;SDS011;37448;51.588;7.248;2022-10-17T13:24:37;10.52;;;4.35;;
51358;SDS011;37448;51.588;7.248;2022-10-17T13:27:27;15.07;;;4.63;;
51358;SDS011;37448;51.588;7.248;2022-10-17T13:30:16;10.13;;;4.40;;
51358;SDS011;37448;51.588;7.248;2022-10-17T13:32:57;12.07;;;4.50;;
51358;SDS011;37448;51.588;7.248;2022-10-17T13:35:29;15.35;;;4.55;;
51358;SDS011;37448;51.588;7.248;2022-10-17T13:38:03;11.65;;;4.80;;
51358;SDS011;37448;51.588;7.248;2022-10-17T13:40:40;13.13;;;4.70;;
51358;SDS011;37448;51.588;7.248;2022-10-17T13:43:13;14.85;;;4.97;;
51358;SDS011;37448;51.588;7.248;2022-10-17T13:46:34;11.68;;;4.72;;
51358;SDS011;37448;51.588;7.248;2022-10-17T13:48:48;17.05;;;4.57;;
51358;SDS011;37448;51.588;7.248;2022-10-17T13:51:18;13.82;;;4.72;;
51358;SDS011;37448;51.588;7.248;2022-10-17T13:53:49;9.32;;;4.75;;
51358;SDS011;37448;51.588;7.248;2022-10-17T13:56:23;10.15;;;4.85;;
51358;SDS011;37448;51.588;7.248;2022-10-17T13:58:56;11.30;;;5.13;;
51358;SDS011;37448;51.588;7.248;2022-10-17T14:01:29;9.02;;;5.20;;
51358;SDS011;37448;51.588;7.248;2022-10-17T14:04:00;11.93;;;5.32;;
51358;SDS011;37448;51.588;7.248;2022-10-17T14:06:30;12.32;;;4.65;;
51358;SDS011;37448;51.588;7.248;2022-10-17T14:09:05;11.20;;;4.78;;
51358;SDS011;37448;51.588;7.248;2022-10-17T14:11:45;12.50;;;5.75;;
51358;SDS011;37448;51.588;7.248;2022-10-17T14:14:26;10.43;;;4.72;;
51358;SDS011;37448;51.588;7.248;2022-10-17T14:16:58;13.93;;;5.00;;
51358;SDS011;37448;51.588;7.248;2022-10-17T14:19:33;10.73;;;4.60;;
51358;SDS011;37448;51.588;7.248;2022-10-17T14:22:16;10.60;;;4.50;;
51358;SDS011;37448;51.588;7.248;2022-10-17T14:24:54;13.73;;;4.18;;
51358;SDS011;37448;51.588;7.248;2022-10-17T14:32:55;12.70;;;4.20;;
51358;SDS011;37448;51.588;7.248;2022-10-17T14:35:28;10.30;;;4.10;;
51358;SDS011;37448;51.588;7.248;2022-10-17T14:38:03;11.80;;;4.53;;
51358;SDS011;37448;51.588;7.248;2022-10-17T14:40:35;10.63;;;4.15;;
51358;SDS011;37448;51.588;7.248;2022-10-17T14:43:05;12.27;;;4.90;;
51358;SDS011;37448;51.588;7.248;2022-10-17T14:45:37;8.88;;;4.82;;
51358;SDS011;37448;51.588;7.248;2022-10-17T14:48:10;10.25;;;4.43;;
51358;SDS011;37448;51.588;7.248;2022-10-17T14:53:41;11.25;;;4.20;;
51358;SDS011;37448;51.588;7.248;2022-10-17T14:58:53;11.60;;;3.95;;
51358;SDS011;37448;51.588;7.248;2022-10-17T15:01:24;11.90;;;4.45;;
51358;SDS011;37448;51.588;7.248;2022-10-17T15:03:54;8.20;;;3.72;;
51358;SDS011;37448;51.588;7.248;2022-10-17T15:06:26;9.02;;;4.13;;
51358;SDS011;37448;51.588;7.248;2022-10-17T15:09:02;11.95;;;4.40;;
51358;SDS011;37448;51.588;7.248;2022-10-17T15:11:33;12.20;;;4.20;;
51358;SDS011;37448;51.588;7.248;2022-10-17T15:14:03;10.60;;;4.47;;
51358;SDS011;37448;51.588;7.248;2022-10-17T15:16:34;11.95;;;3.55;;
51358;SDS011;37448;51.588;7.248;2022-10-17T15:19:04;7.97;;;3.65;;
51358;SDS011;37448;51.588;7.248;2022-10-17T15:21:34;11.90;;;3.85;;
51358;SDS011;37448;51.588;7.248;2022-10-17T15:24:05;9.65;;;3.75;;
51358;SDS011;37448;51.588;7.248;2022-10-17T15:26:35;9.82;;;3.60;;
51358;SDS011;37448;51.588;7.248;2022-10-17T15:29:06;8.55;;;3.63;;
51358;SDS011;37448;51.588;7.248;2022-10-17T15:31:36;14.90;;;3.50;;
51358;SDS011;37448;51.588;7.248;2022-10-17T15:34:07;11.50;;;4.05;;
51358;SDS011;37448;51.588;7.248;2022-10-17T15:36:38;8.38;;;3.80;;
51358;SDS011;37448;51.588;7.248;2022-10-17T15:39:10;12.50;;;3.65;;
51358;SDS011;37448;51.588;7.248;2022-10-17T15:41:40;10.95;;;3.60;;
51358;SDS011;37448;51.588;7.248;2022-10-17T15:44:10;9.70;;;4.18;;
51358;SDS011;37448;51.588;7.248;2022-10-17T15:46:41;10.52;;;4.43;;
51358;SDS011;37448;51.588;7.248;2022-10-17T15:49:13;16.30;;;4.40;;
51358;SDS011;37448;51.588;7.248;2022-10-17T15:51:46;10.32;;;4.35;;
51358;SDS011;37448;51.588;7.248;2022-10-17T15:54:16;8.95;;;3.97;;
51358;SDS011;37448;51.588;7.248;2022-10-17T15:56:48;11.60;;;4.75;;
51358;SDS011;37448;51.588;7.248;2022-10-17T15:59:24;12.77;;;4.70;;
51358;SDS011;37448;51.588;7.248;2022-10-17T16:01:59;9.30;;;4.32;;
51358;SDS011;37448;51.588;7.248;2022-10-17T16:04:29;9.93;;;4.22;;
51358;SDS011;37448;51.588;7.248;2022-10-17T16:07:00;10.48;;;4.28;;
51358;SDS011;37448;51.588;7.248;2022-10-17T16:09:30;10.52;;;4.47;;
51358;SDS011;37448;51.588;7.248;2022-10-17T16:12:00;12.60;;;4.22;;
51358;SDS011;37448;51.588;7.248;2022-10-17T16:14:31;9.73;;;4.00;;
51358;SDS011;37448;51.588;7.248;2022-10-17T16:17:02;9.77;;;4.32;;
51358;SDS011;37448;51.588;7.248;2022-10-17T16:19:32;7.47;;;4.22;;
51358;SDS011;37448;51.588;7.248;2022-10-17T16:22:02;10.15;;;4.40;;
51358;SDS011;37448;51.588;7.248;2022-10-17T16:24:35;10.50;;;5.00;;
51358;SDS011;37448;51.588;7.248;2022-10-17T16:27:06;9.48;;;4.95;;
51358;SDS011;37448;51.588;7.248;2022-10-17T16:29:38;13.60;;;5.75;;
51358;SDS011;37448;51.588;7.248;2022-10-17T16:32:08;11.05;;;5.53;;
51358;SDS011;37448;51.588;7.248;2022-10-17T16:34:39;13.23;;;5.97;;
51358;SDS011;37448;51.588;7.248;2022-10-17T16:37:09;10.20;;;5.93;;
51358;SDS011;37448;51.588;7.248;2022-10-17T16:39:39;12.70;;;6.10;;
51358;SDS011;37448;51.588;7.248;2022-10-17T16:42:10;13.20;;;5.60;;
51358;SDS011;37448;51.588;7.248;2022-10-17T16:44:40;14.60;;;6.18;;
51358;SDS011;37448;51.588;7.248;2022-10-17T16:47:10;12.05;;;6.20;;
51358;SDS011;37448;51.588;7.248;2022-10-17T16:49:41;13.80;;;6.45;;
51358;SDS011;37448;51.588;7.248;2022-10-17T16:52:11;17.98;;;8.65;;
51358;SDS011;37448;51.588;7.248;2022-10-17T16:54:42;13.77;;;7.07;;
51358;SDS011;37448;51.588;7.248;2022-10-17T16:57:13;14.50;;;7.43;;
51358;SDS011;37448;51.588;7.248;2022-10-17T16:59:43;12.30;;;7.10;;
51358;SDS011;37448;51.588;7.248;2022-10-17T17:02:13;13.75;;;7.55;;
51358;SDS011;37448;51.588;7.248;2022-10-17T17:04:44;12.43;;;8.00;;
51358;SDS011;37448;51.588;7.248;2022-10-17T17:07:14;15.98;;;8.63;;
51358;SDS011;37448;51.588;7.248;2022-10-17T17:09:47;14.70;;;8.65;;
51358;SDS011;37448;51.588;7.248;2022-10-17T17:12:18;17.30;;;10.98;;
51358;SDS011;37448;51.588;7.248;2022-10-17T17:14:48;82.68;;;51.03;;
51358;SDS011;37448;51.588;7.248;2022-10-17T17:17:18;23.60;;;12.90;;
51358;SDS011;37448;51.588;7.248;2022-10-17T17:19:49;22.45;;;14.38;;
51358;SDS011;37448;51.588;7.248;2022-10-17T17:22:19;16.95;;;9.93;;
51358;SDS011;37448;51.588;7.248;2022-10-17T17:24:49;18.33;;;11.23;;
51358;SDS011;37448;51.588;7.248;2022-10-17T17:27:29;17.17;;;9.43;;
51358;SDS011;37448;51.588;7.248;2022-10-17T17:30:12;20.50;;;10.25;;
51358;SDS011;37448;51.588;7.248;2022-10-17T17:32:42;20.15;;;12.90;;
51358;SDS011;37448;51.588;7.248;2022-10-17T17:35:12;18.48;;;9.90;;